메인 페이지
METAR-TAF:

METAR-TAF

공항 :

앤토니오 B. 원 팻 국제공항

하갓냐, 괌, 미국

위도: 13-29N, 경도: 144-48E, 고도: 91m

현재 날씨관측

예보는 21분 전, 23:23시(UTC)에 발표되었습니다.
8kt
온도 31°C
습도 79%
기압 1012 hPa
시정: 16.1km
고도 1900ft 상공 구름 많음

METAR: PGUM 262323Z 09008KT 10SM BKN019 31/27 A2989 RMK AO2 T03060267 $

시각: 09:44 (23:44 UTC)

예보

예보는 24분 전, 23:20시(UTC)에 발표되었습니다.
예보 대상 시간: 27일 00시부터 28일 06시까지 (UTC)
15kt
시정: 10km
고도 2100ft 상공 구름 보통
시계 내 소나기
27일 0900시부터 (UTC)
8kt
시정: 10km
고도 2000ft 상공 구름 보통
시계 내 소나기

TAF: PGUM 262320Z 2700/2806 10015KT P6SM VCSH SCT021 FM270900 09008KT P6SM VCSH SCT020

4,000개 이상의 공항 관측 자료 및 예보 (METAR 및 TAF 보고).

지도상에서 검색 가능한 기상관측소가 노란 점과 빨간 점으로 표시되어 있습니다.

기상관측소 명을 보려면 표시 위로 마우스를 이동하세요.

날씨 관측과 예보를 보려면 클릭하세요.

지도 변경 : 확대하려면 엑스 표시가 있는 녹색 버튼, 축소하려면 빼기 표시가 있는 녹색 버튼, 다음 페이지의 지도를 보려면 녹색 화살표를 클릭하세요.


METAR-TAF: